sensor_id;sensor_type;location;lat;lon;timestamp;P1;durP1;ratioP1;P2;durP2;ratioP2
6850;SDS011;3464;42.728;23.296;2023-06-14T00:01:30;12.63;;;6.20;;
6850;SDS011;3464;42.728;23.296;2023-06-14T00:03:57;13.93;;;6.53;;
6850;SDS011;3464;42.728;23.296;2023-06-14T00:06:23;13.70;;;6.60;;
6850;SDS011;3464;42.728;23.296;2023-06-14T00:08:50;12.57;;;6.50;;
6850;SDS011;3464;42.728;23.296;2023-06-14T00:11:16;12.10;;;6.20;;
6850;SDS011;3464;42.728;23.296;2023-06-14T00:13:43;15.20;;;6.40;;
6850;SDS011;3464;42.728;23.296;2023-06-14T00:16:09;17.23;;;7.00;;
6850;SDS011;3464;42.728;23.296;2023-06-14T00:18:36;12.57;;;6.30;;
6850;SDS011;3464;42.728;23.296;2023-06-14T00:21:05;15.20;;;6.57;;
6850;SDS011;3464;42.728;23.296;2023-06-14T00:23:32;12.93;;;6.83;;
6850;SDS011;3464;42.728;23.296;2023-06-14T00:25:58;11.50;;;6.23;;
6850;SDS011;3464;42.728;23.296;2023-06-14T00:28:25;14.47;;;6.80;;
6850;SDS011;3464;42.728;23.296;2023-06-14T00:30:52;13.07;;;6.50;;
6850;SDS011;3464;42.728;23.296;2023-06-14T00:33:18;17.90;;;6.60;;
6850;SDS011;3464;42.728;23.296;2023-06-14T00:35:45;12.80;;;6.53;;
6850;SDS011;3464;42.728;23.296;2023-06-14T00:38:11;12.87;;;6.27;;
6850;SDS011;3464;42.728;23.296;2023-06-14T00:40:38;18.47;;;6.77;;
6850;SDS011;3464;42.728;23.296;2023-06-14T00:43:04;15.43;;;7.47;;
6850;SDS011;3464;42.728;23.296;2023-06-14T00:45:31;14.60;;;7.33;;
6850;SDS011;3464;42.728;23.296;2023-06-14T00:47:57;13.30;;;6.77;;
6850;SDS011;3464;42.728;23.296;2023-06-14T00:50:24;14.33;;;7.97;;
6850;SDS011;3464;42.728;23.296;2023-06-14T00:52:50;15.10;;;7.57;;
6850;SDS011;3464;42.728;23.296;2023-06-14T00:55:17;13.37;;;8.10;;
6850;SDS011;3464;42.728;23.296;2023-06-14T00:57:44;15.27;;;7.90;;
6850;SDS011;3464;42.728;23.296;2023-06-14T01:00:11;14.10;;;8.57;;
6850;SDS011;3464;42.728;23.296;2023-06-14T01:02:38;13.87;;;7.90;;
6850;SDS011;3464;42.728;23.296;2023-06-14T01:05:04;14.60;;;8.70;;
6850;SDS011;3464;42.728;23.296;2023-06-14T01:07:41;15.20;;;7.73;;
6850;SDS011;3464;42.728;23.296;2023-06-14T01:13:18;16.30;;;8.77;;
6850;SDS011;3464;42.728;23.296;2023-06-14T01:15:42;14.40;;;7.33;;
6850;SDS011;3464;42.728;23.296;2023-06-14T01:18:08;14.93;;;8.00;;
6850;SDS011;3464;42.728;23.296;2023-06-14T01:20:35;15.23;;;7.53;;
6850;SDS011;3464;42.728;23.296;2023-06-14T01:23:03;15.37;;;8.20;;
6850;SDS011;3464;42.728;23.296;2023-06-14T01:25:30;13.80;;;7.67;;
6850;SDS011;3464;42.728;23.296;2023-06-14T01:28:00;14.53;;;8.07;;
6850;SDS011;3464;42.728;23.296;2023-06-14T01:30:25;12.57;;;7.80;;
6850;SDS011;3464;42.728;23.296;2023-06-14T01:32:52;17.00;;;7.70;;
6850;SDS011;3464;42.728;23.296;2023-06-14T01:35:18;14.63;;;8.00;;
6850;SDS011;3464;42.728;23.296;2023-06-14T01:37:45;13.97;;;7.60;;
6850;SDS011;3464;42.728;23.296;2023-06-14T01:40:11;12.43;;;7.03;;
6850;SDS011;3464;42.728;23.296;2023-06-14T01:42:38;13.90;;;7.73;;
6850;SDS011;3464;42.728;23.296;2023-06-14T01:45:05;15.33;;;7.87;;
6850;SDS011;3464;42.728;23.296;2023-06-14T01:47:32;14.83;;;8.47;;
6850;SDS011;3464;42.728;23.296;2023-06-14T01:49:59;13.30;;;7.67;;
6850;SDS011;3464;42.728;23.296;2023-06-14T01:52:26;14.80;;;7.17;;
6850;SDS011;3464;42.728;23.296;2023-06-14T01:54:53;13.90;;;7.10;;
6850;SDS011;3464;42.728;23.296;2023-06-14T01:57:20;14.27;;;7.50;;
6850;SDS011;3464;42.728;23.296;2023-06-14T01:59:46;13.43;;;7.60;;
6850;SDS011;3464;42.728;23.296;2023-06-14T02:02:13;16.23;;;7.87;;
6850;SDS011;3464;42.728;23.296;2023-06-14T02:04:40;22.27;;;8.00;;
6850;SDS011;3464;42.728;23.296;2023-06-14T02:07:07;15.80;;;7.70;;
6850;SDS011;3464;42.728;23.296;2023-06-14T02:09:34;13.87;;;7.90;;
6850;SDS011;3464;42.728;23.296;2023-06-14T02:12:01;14.80;;;8.10;;
6850;SDS011;3464;42.728;23.296;2023-06-14T02:14:27;13.40;;;7.93;;
6850;SDS011;3464;42.728;23.296;2023-06-14T02:16:54;15.93;;;7.40;;
6850;SDS011;3464;42.728;23.296;2023-06-14T02:19:20;14.60;;;7.30;;
6850;SDS011;3464;42.728;23.296;2023-06-14T02:21:47;14.40;;;7.17;;
6850;SDS011;3464;42.728;23.296;2023-06-14T02:24:14;15.17;;;7.50;;
6850;SDS011;3464;42.728;23.296;2023-06-14T02:26:41;15.70;;;7.40;;
6850;SDS011;3464;42.728;23.296;2023-06-14T02:29:07;14.23;;;7.53;;
6850;SDS011;3464;42.728;23.296;2023-06-14T02:31:34;14.00;;;7.40;;
6850;SDS011;3464;42.728;23.296;2023-06-14T02:34:00;13.90;;;7.30;;
6850;SDS011;3464;42.728;23.296;2023-06-14T02:36:27;13.87;;;7.10;;
6850;SDS011;3464;42.728;23.296;2023-06-14T02:38:56;15.83;;;7.63;;
6850;SDS011;3464;42.728;23.296;2023-06-14T02:41:24;13.57;;;6.73;;
6850;SDS011;3464;42.728;23.296;2023-06-14T02:43:50;12.40;;;6.57;;
6850;SDS011;3464;42.728;23.296;2023-06-14T02:46:16;15.23;;;7.40;;
6850;SDS011;3464;42.728;23.296;2023-06-14T02:48:43;16.93;;;6.97;;
6850;SDS011;3464;42.728;23.296;2023-06-14T02:51:10;17.87;;;7.80;;
6850;SDS011;3464;42.728;23.296;2023-06-14T02:53:36;17.53;;;7.90;;
6850;SDS011;3464;42.728;23.296;2023-06-14T02:56:03;13.80;;;7.37;;
6850;SDS011;3464;42.728;23.296;2023-06-14T02:58:30;18.13;;;7.50;;
6850;SDS011;3464;42.728;23.296;2023-06-14T03:00:56;15.47;;;7.30;;
6850;SDS011;3464;42.728;23.296;2023-06-14T03:03:23;13.73;;;7.47;;
6850;SDS011;3464;42.728;23.296;2023-06-14T03:05:50;17.30;;;7.50;;
6850;SDS011;3464;42.728;23.296;2023-06-14T03:08:16;15.80;;;8.37;;
6850;SDS011;3464;42.728;23.296;2023-06-14T03:10:46;23.90;;;8.60;;
6850;SDS011;3464;42.728;23.296;2023-06-14T03:13:13;14.97;;;7.20;;
6850;SDS011;3464;42.728;23.296;2023-06-14T03:15:39;15.70;;;7.33;;
6850;SDS011;3464;42.728;23.296;2023-06-14T03:18:08;14.50;;;7.97;;
6850;SDS011;3464;42.728;23.296;2023-06-14T03:20:35;19.77;;;8.23;;
6850;SDS011;3464;42.728;23.296;2023-06-14T03:23:01;15.37;;;7.77;;
6850;SDS011;3464;42.728;23.296;2023-06-14T03:25:28;16.07;;;7.90;;
6850;SDS011;3464;42.728;23.296;2023-06-14T03:27:55;15.67;;;7.77;;
6850;SDS011;3464;42.728;23.296;2023-06-14T03:30:22;13.70;;;7.50;;
6850;SDS011;3464;42.728;23.296;2023-06-14T03:32:49;16.00;;;7.43;;
6850;SDS011;3464;42.728;23.296;2023-06-14T03:35:16;17.60;;;7.70;;
6850;SDS011;3464;42.728;23.296;2023-06-14T03:37:44;18.37;;;7.60;;
6850;SDS011;3464;42.728;23.296;2023-06-14T03:40:11;18.10;;;8.30;;
6850;SDS011;3464;42.728;23.296;2023-06-14T03:42:38;16.80;;;7.73;;
6850;SDS011;3464;42.728;23.296;2023-06-14T03:45:08;14.97;;;7.33;;
6850;SDS011;3464;42.728;23.296;2023-06-14T03:47:34;18.97;;;7.37;;
6850;SDS011;3464;42.728;23.296;2023-06-14T03:50:03;14.30;;;6.63;;
6850;SDS011;3464;42.728;23.296;2023-06-14T03:52:30;23.53;;;7.10;;
6850;SDS011;3464;42.728;23.296;2023-06-14T03:54:56;13.07;;;6.43;;
6850;SDS011;3464;42.728;23.296;2023-06-14T03:57:23;15.30;;;6.50;;
6850;SDS011;3464;42.728;23.296;2023-06-14T03:59:51;13.80;;;6.73;;
6850;SDS011;3464;42.728;23.296;2023-06-14T04:02:17;14.20;;;6.50;;
6850;SDS011;3464;42.728;23.296;2023-06-14T04:04:44;15.10;;;6.30;;
6850;SDS011;3464;42.728;23.296;2023-06-14T04:07:11;12.57;;;6.40;;
6850;SDS011;3464;42.728;23.296;2023-06-14T04:09:38;12.80;;;5.53;;
6850;SDS011;3464;42.728;23.296;2023-06-14T04:12:04;14.40;;;5.50;;
6850;SDS011;3464;42.728;23.296;2023-06-14T04:14:31;12.53;;;5.47;;
6850;SDS011;3464;42.728;23.296;2023-06-14T04:16:58;11.80;;;5.20;;
6850;SDS011;3464;42.728;23.296;2023-06-14T04:19:24;18.23;;;6.03;;
6850;SDS011;3464;42.728;23.296;2023-06-14T04:21:51;12.50;;;5.53;;
6850;SDS011;3464;42.728;23.296;2023-06-14T04:24:18;11.90;;;5.50;;
6850;SDS011;3464;42.728;23.296;2023-06-14T04:26:44;11.23;;;5.37;;
6850;SDS011;3464;42.728;23.296;2023-06-14T04:29:11;13.83;;;5.27;;
6850;SDS011;3464;42.728;23.296;2023-06-14T04:31:40;12.73;;;5.77;;
6850;SDS011;3464;42.728;23.296;2023-06-14T04:34:06;11.90;;;4.73;;
6850;SDS011;3464;42.728;23.296;2023-06-14T04:36:33;13.00;;;4.87;;
6850;SDS011;3464;42.728;23.296;2023-06-14T04:39:01;19.40;;;5.53;;
6850;SDS011;3464;42.728;23.296;2023-06-14T04:41:28;13.50;;;6.20;;
6850;SDS011;3464;42.728;23.296;2023-06-14T04:43:54;14.03;;;5.30;;
6850;SDS011;3464;42.728;23.296;2023-06-14T04:46:21;12.37;;;5.13;;
6850;SDS011;3464;42.728;23.296;2023-06-14T04:48:47;11.50;;;4.83;;
6850;SDS011;3464;42.728;23.296;2023-06-14T04:51:14;13.27;;;5.10;;
6850;SDS011;3464;42.728;23.296;2023-06-14T04:53:40;12.80;;;4.67;;
6850;SDS011;3464;42.728;23.296;2023-06-14T04:56:07;14.03;;;5.30;;
6850;SDS011;3464;42.728;23.296;2023-06-14T04:58:33;12.87;;;4.73;;
6850;SDS011;3464;42.728;23.296;2023-06-14T05:01:00;12.80;;;5.00;;
6850;SDS011;3464;42.728;23.296;2023-06-14T05:03:27;16.63;;;5.23;;
6850;SDS011;3464;42.728;23.296;2023-06-14T05:05:54;14.30;;;5.43;;
6850;SDS011;3464;42.728;23.296;2023-06-14T05:08:21;13.30;;;5.50;;
6850;SDS011;3464;42.728;23.296;2023-06-14T05:10:50;14.93;;;5.80;;
6850;SDS011;3464;42.728;23.296;2023-06-14T05:13:16;14.50;;;6.20;;
6850;SDS011;3464;42.728;23.296;2023-06-14T05:15:42;14.47;;;5.70;;
6850;SDS011;3464;42.728;23.296;2023-06-14T05:18:09;13.57;;;6.23;;
6850;SDS011;3464;42.728;23.296;2023-06-14T05:20:36;12.53;;;5.90;;
6850;SDS011;3464;42.728;23.296;2023-06-14T05:23:03;16.20;;;6.47;;
6850;SDS011;3464;42.728;23.296;2023-06-14T05:25:30;15.00;;;6.83;;
6850;SDS011;3464;42.728;23.296;2023-06-14T05:27:57;15.33;;;7.63;;
6850;SDS011;3464;42.728;23.296;2023-06-14T05:30:23;18.60;;;9.40;;
6850;SDS011;3464;42.728;23.296;2023-06-14T05:32:50;23.20;;;10.70;;
6850;SDS011;3464;42.728;23.296;2023-06-14T05:35:16;20.17;;;10.70;;
6850;SDS011;3464;42.728;23.296;2023-06-14T05:37:43;26.23;;;12.90;;
6850;SDS011;3464;42.728;23.296;2023-06-14T05:40:10;22.10;;;10.80;;
6850;SDS011;3464;42.728;23.296;2023-06-14T05:42:37;20.50;;;11.90;;
6850;SDS011;3464;42.728;23.296;2023-06-14T05:45:03;28.87;;;10.93;;
6850;SDS011;3464;42.728;23.296;2023-06-14T05:47:30;24.13;;;11.07;;
6850;SDS011;3464;42.728;23.296;2023-06-14T05:49:57;28.03;;;11.07;;
6850;SDS011;3464;42.728;23.296;2023-06-14T05:52:24;18.63;;;10.30;;
6850;SDS011;3464;42.728;23.296;2023-06-14T05:54:50;18.40;;;10.70;;
6850;SDS011;3464;42.728;23.296;2023-06-14T05:57:17;24.00;;;11.57;;
6850;SDS011;3464;42.728;23.296;2023-06-14T05:59:44;76.60;;;16.23;;
6850;SDS011;3464;42.728;23.296;2023-06-14T06:02:10;16.57;;;8.97;;
6850;SDS011;3464;42.728;23.296;2023-06-14T06:04:37;17.57;;;9.20;;
6850;SDS011;3464;42.728;23.296;2023-06-14T06:07:04;15.80;;;8.67;;
6850;SDS011;3464;42.728;23.296;2023-06-14T06:09:30;18.30;;;9.03;;
6850;SDS011;3464;42.728;23.296;2023-06-14T06:11:57;18.07;;;9.67;;
6850;SDS011;3464;42.728;23.296;2023-06-14T06:14:23;16.93;;;9.30;;
6850;SDS011;3464;42.728;23.296;2023-06-14T06:16:50;17.03;;;9.33;;
6850;SDS011;3464;42.728;23.296;2023-06-14T06:19:16;17.30;;;9.40;;
6850;SDS011;3464;42.728;23.296;2023-06-14T06:21:43;16.63;;;8.97;;
6850;SDS011;3464;42.728;23.296;2023-06-14T06:24:09;21.53;;;9.77;;
6850;SDS011;3464;42.728;23.296;2023-06-14T06:26:37;17.50;;;8.80;;
6850;SDS011;3464;42.728;23.296;2023-06-14T06:29:06;16.90;;;8.77;;
6850;SDS011;3464;42.728;23.296;2023-06-14T06:31:32;20.70;;;9.37;;
6850;SDS011;3464;42.728;23.296;2023-06-14T06:33:59;34.67;;;10.57;;
6850;SDS011;3464;42.728;23.296;2023-06-14T06:36:26;19.67;;;10.10;;
6850;SDS011;3464;42.728;23.296;2023-06-14T06:38:52;17.40;;;10.10;;
6850;SDS011;3464;42.728;23.296;2023-06-14T06:41:19;18.13;;;9.43;;
6850;SDS011;3464;42.728;23.296;2023-06-14T06:43:45;21.27;;;10.20;;
6850;SDS011;3464;42.728;23.296;2023-06-14T06:46:12;18.50;;;10.40;;
6850;SDS011;3464;42.728;23.296;2023-06-14T06:48:40;23.53;;;10.07;;
6850;SDS011;3464;42.728;23.296;2023-06-14T06:51:06;16.90;;;9.70;;
6850;SDS011;3464;42.728;23.296;2023-06-14T06:53:34;18.27;;;9.20;;
6850;SDS011;3464;42.728;23.296;2023-06-14T06:56:05;20.13;;;10.10;;
6850;SDS011;3464;42.728;23.296;2023-06-14T06:58:31;22.87;;;10.53;;
6850;SDS011;3464;42.728;23.296;2023-06-14T07:00:58;24.87;;;10.20;;
6850;SDS011;3464;42.728;23.296;2023-06-14T07:03:25;18.27;;;8.83;;
6850;SDS011;3464;42.728;23.296;2023-06-14T07:05:51;20.50;;;9.70;;
6850;SDS011;3464;42.728;23.296;2023-06-14T07:08:19;16.73;;;8.63;;
6850;SDS011;3464;42.728;23.296;2023-06-14T07:10:46;20.37;;;8.77;;
6850;SDS011;3464;42.728;23.296;2023-06-14T07:13:12;14.27;;;8.30;;
6850;SDS011;3464;42.728;23.296;2023-06-14T07:15:39;16.00;;;10.23;;
6850;SDS011;3464;42.728;23.296;2023-06-14T07:18:06;15.50;;;9.00;;
6850;SDS011;3464;42.728;23.296;2023-06-14T07:20:33;18.80;;;9.60;;
6850;SDS011;3464;42.728;23.296;2023-06-14T07:23:00;17.73;;;10.97;;
6850;SDS011;3464;42.728;23.296;2023-06-14T07:25:26;18.63;;;10.67;;
6850;SDS011;3464;42.728;23.296;2023-06-14T07:27:53;17.93;;;10.10;;
6850;SDS011;3464;42.728;23.296;2023-06-14T07:30:22;22.60;;;12.10;;
6850;SDS011;3464;42.728;23.296;2023-06-14T07:32:48;19.77;;;12.83;;
6850;SDS011;3464;42.728;23.296;2023-06-14T07:35:16;18.73;;;11.40;;
6850;SDS011;3464;42.728;23.296;2023-06-14T07:37:43;19.97;;;12.70;;
6850;SDS011;3464;42.728;23.296;2023-06-14T07:40:10;17.37;;;10.73;;
6850;SDS011;3464;42.728;23.296;2023-06-14T07:42:37;17.70;;;11.10;;
6850;SDS011;3464;42.728;23.296;2023-06-14T07:45:03;21.40;;;12.40;;
6850;SDS011;3464;42.728;23.296;2023-06-14T07:47:31;17.40;;;11.57;;
6850;SDS011;3464;42.728;23.296;2023-06-14T07:49:58;20.23;;;12.10;;
6850;SDS011;3464;42.728;23.296;2023-06-14T07:52:24;19.40;;;11.50;;
6850;SDS011;3464;42.728;23.296;2023-06-14T07:54:51;18.23;;;10.57;;
6850;SDS011;3464;42.728;23.296;2023-06-14T07:57:17;16.13;;;9.37;;
6850;SDS011;3464;42.728;23.296;2023-06-14T07:59:44;17.90;;;10.07;;
6850;SDS011;3464;42.728;23.296;2023-06-14T08:02:11;19.93;;;11.43;;
6850;SDS011;3464;42.728;23.296;2023-06-14T08:04:38;18.00;;;9.80;;
6850;SDS011;3464;42.728;23.296;2023-06-14T08:07:04;16.40;;;9.00;;
6850;SDS011;3464;42.728;23.296;2023-06-14T08:09:33;14.00;;;8.10;;
6850;SDS011;3464;42.728;23.296;2023-06-14T08:11:59;15.23;;;8.90;;
6850;SDS011;3464;42.728;23.296;2023-06-14T08:14:26;15.80;;;10.17;;
6850;SDS011;3464;42.728;23.296;2023-06-14T08:16:53;17.07;;;9.50;;
6850;SDS011;3464;42.728;23.296;2023-06-14T08:19:19;19.17;;;9.40;;
6850;SDS011;3464;42.728;23.296;2023-06-14T08:21:46;17.07;;;8.90;;
6850;SDS011;3464;42.728;23.296;2023-06-14T08:24:12;25.60;;;9.37;;
6850;SDS011;3464;42.728;23.296;2023-06-14T08:26:39;19.93;;;8.87;;
6850;SDS011;3464;42.728;23.296;2023-06-14T08:29:05;19.33;;;8.90;;
6850;SDS011;3464;42.728;23.296;2023-06-14T08:31:34;16.80;;;8.57;;
6850;SDS011;3464;42.728;23.296;2023-06-14T08:34:01;15.97;;;8.70;;
6850;SDS011;3464;42.728;23.296;2023-06-14T08:36:28;24.77;;;9.20;;
6850;SDS011;3464;42.728;23.296;2023-06-14T08:38:54;18.37;;;10.47;;
6850;SDS011;3464;42.728;23.296;2023-06-14T08:41:21;15.23;;;9.43;;
6850;SDS011;3464;42.728;23.296;2023-06-14T08:43:51;17.60;;;9.60;;
6850;SDS011;3464;42.728;23.296;2023-06-14T08:46:17;18.90;;;8.70;;
6850;SDS011;3464;42.728;23.296;2023-06-14T08:48:43;17.50;;;8.70;;
6850;SDS011;3464;42.728;23.296;2023-06-14T08:51:17;15.07;;;8.50;;
6850;SDS011;3464;42.728;23.296;2023-06-14T08:53:42;16.60;;;8.20;;
6850;SDS011;3464;42.728;23.296;2023-06-14T08:56:08;16.33;;;9.07;;
6850;SDS011;3464;42.728;23.296;2023-06-14T08:58:35;18.53;;;10.37;;
6850;SDS011;3464;42.728;23.296;2023-06-14T09:01:03;14.90;;;8.67;;
6850;SDS011;3464;42.728;23.296;2023-06-14T09:03:30;15.20;;;8.47;;
6850;SDS011;3464;42.728;23.296;2023-06-14T09:05:57;20.43;;;8.90;;
6850;SDS011;3464;42.728;23.296;2023-06-14T09:08:23;16.47;;;9.43;;
6850;SDS011;3464;42.728;23.296;2023-06-14T09:10:49;18.87;;;11.10;;
6850;SDS011;3464;42.728;23.296;2023-06-14T09:13:16;18.83;;;9.83;;
6850;SDS011;3464;42.728;23.296;2023-06-14T09:15:43;17.07;;;9.57;;
6850;SDS011;3464;42.728;23.296;2023-06-14T09:18:09;18.07;;;10.13;;
6850;SDS011;3464;42.728;23.296;2023-06-14T09:20:36;16.97;;;9.40;;
6850;SDS011;3464;42.728;23.296;2023-06-14T09:23:02;18.47;;;9.47;;
6850;SDS011;3464;42.728;23.296;2023-06-14T09:25:29;18.23;;;10.47;;
6850;SDS011;3464;42.728;23.296;2023-06-14T09:27:55;17.40;;;8.90;;
6850;SDS011;3464;42.728;23.296;2023-06-14T09:30:22;15.30;;;8.97;;
6850;SDS011;3464;42.728;23.296;2023-06-14T09:32:49;16.70;;;8.43;;
6850;SDS011;3464;42.728;23.296;2023-06-14T09:35:17;14.60;;;8.63;;
6850;SDS011;3464;42.728;23.296;2023-06-14T09:37:42;15.30;;;8.10;;
6850;SDS011;3464;42.728;23.296;2023-06-14T09:40:09;15.70;;;9.03;;
6850;SDS011;3464;42.728;23.296;2023-06-14T09:42:35;15.57;;;7.90;;
6850;SDS011;3464;42.728;23.296;2023-06-14T09:45:02;17.10;;;8.20;;
6850;SDS011;3464;42.728;23.296;2023-06-14T09:47:29;15.80;;;8.70;;
6850;SDS011;3464;42.728;23.296;2023-06-14T09:49:56;20.23;;;8.13;;
6850;SDS011;3464;42.728;23.296;2023-06-14T09:52:23;17.73;;;8.50;;
6850;SDS011;3464;42.728;23.296;2023-06-14T09:54:50;15.10;;;8.07;;
6850;SDS011;3464;42.728;23.296;2023-06-14T09:57:17;20.53;;;8.50;;
6850;SDS011;3464;42.728;23.296;2023-06-14T09:59:43;13.20;;;7.40;;
6850;SDS011;3464;42.728;23.296;2023-06-14T10:02:13;14.77;;;7.73;;
6850;SDS011;3464;42.728;23.296;2023-06-14T10:04:44;16.10;;;8.50;;
6850;SDS011;3464;42.728;23.296;2023-06-14T10:07:10;15.60;;;8.80;;
6850;SDS011;3464;42.728;23.296;2023-06-14T10:09:36;21.33;;;9.20;;
6850;SDS011;3464;42.728;23.296;2023-06-14T10:12:03;15.30;;;9.00;;
6850;SDS011;3464;42.728;23.296;2023-06-14T10:14:31;16.87;;;9.43;;
6850;SDS011;3464;42.728;23.296;2023-06-14T10:17:03;18.77;;;9.23;;
6850;SDS011;3464;42.728;23.296;2023-06-14T10:19:31;17.83;;;9.03;;
6850;SDS011;3464;42.728;23.296;2023-06-14T10:21:58;20.07;;;9.27;;
6850;SDS011;3464;42.728;23.296;2023-06-14T10:24:28;18.73;;;9.90;;
6850;SDS011;3464;42.728;23.296;2023-06-14T10:26:53;20.63;;;10.27;;
6850;SDS011;3464;42.728;23.296;2023-06-14T10:29:19;19.70;;;9.67;;
6850;SDS011;3464;42.728;23.296;2023-06-14T10:31:47;25.87;;;10.80;;
6850;SDS011;3464;42.728;23.296;2023-06-14T10:37:04;15.07;;;8.60;;
6850;SDS011;3464;42.728;23.296;2023-06-14T10:39:31;18.00;;;9.37;;
6850;SDS011;3464;42.728;23.296;2023-06-14T10:41:58;22.23;;;8.20;;
6850;SDS011;3464;42.728;23.296;2023-06-14T10:44:32;14.37;;;8.50;;
6850;SDS011;3464;42.728;23.296;2023-06-14T10:47:08;20.27;;;8.90;;
6850;SDS011;3464;42.728;23.296;2023-06-14T10:49:37;18.50;;;9.03;;
6850;SDS011;3464;42.728;23.296;2023-06-14T10:52:22;19.50;;;10.33;;
6850;SDS011;3464;42.728;23.296;2023-06-14T10:57:21;25.17;;;10.63;;
6850;SDS011;3464;42.728;23.296;2023-06-14T10:59:48;16.10;;;9.30;;
6850;SDS011;3464;42.728;23.296;2023-06-14T11:02:22;17.90;;;9.37;;
6850;SDS011;3464;42.728;23.296;2023-06-14T11:04:48;20.70;;;10.60;;
6850;SDS011;3464;42.728;23.296;2023-06-14T11:07:28;18.50;;;10.20;;
6850;SDS011;3464;42.728;23.296;2023-06-14T11:09:56;22.90;;;10.90;;
6850;SDS011;3464;42.728;23.296;2023-06-14T11:12:22;20.30;;;9.77;;
6850;SDS011;3464;42.728;23.296;2023-06-14T11:14:48;20.20;;;11.27;;
6850;SDS011;3464;42.728;23.296;2023-06-14T11:17:15;16.50;;;10.43;;
6850;SDS011;3464;42.728;23.296;2023-06-14T11:19:41;20.93;;;10.50;;
6850;SDS011;3464;42.728;23.296;2023-06-14T11:22:08;17.77;;;10.70;;
6850;SDS011;3464;42.728;23.296;2023-06-14T11:24:34;18.50;;;11.07;;
6850;SDS011;3464;42.728;23.296;2023-06-14T11:27:01;19.97;;;11.70;;
6850;SDS011;3464;42.728;23.296;2023-06-14T11:29:28;19.47;;;11.43;;
6850;SDS011;3464;42.728;23.296;2023-06-14T11:31:55;20.00;;;12.30;;
6850;SDS011;3464;42.728;23.296;2023-06-14T11:34:35;19.27;;;11.10;;
6850;SDS011;3464;42.728;23.296;2023-06-14T11:37:01;24.77;;;11.83;;
6850;SDS011;3464;42.728;23.296;2023-06-14T11:39:28;17.43;;;10.37;;
6850;SDS011;3464;42.728;23.296;2023-06-14T11:41:55;17.40;;;9.67;;
6850;SDS011;3464;42.728;23.296;2023-06-14T11:44:21;18.80;;;11.13;;
6850;SDS011;3464;42.728;23.296;2023-06-14T11:46:48;20.30;;;10.50;;
6850;SDS011;3464;42.728;23.296;2023-06-14T11:49:14;22.20;;;11.07;;
6850;SDS011;3464;42.728;23.296;2023-06-14T11:51:42;17.00;;;10.43;;
6850;SDS011;3464;42.728;23.296;2023-06-14T11:54:08;24.80;;;10.50;;
6850;SDS011;3464;42.728;23.296;2023-06-14T11:56:36;20.93;;;10.73;;
6850;SDS011;3464;42.728;23.296;2023-06-14T11:59:03;14.80;;;8.60;;
6850;SDS011;3464;42.728;23.296;2023-06-14T12:01:30;24.57;;;9.80;;
6850;SDS011;3464;42.728;23.296;2023-06-14T12:03:57;18.20;;;9.50;;
6850;SDS011;3464;42.728;23.296;2023-06-14T12:06:26;15.37;;;9.20;;
6850;SDS011;3464;42.728;23.296;2023-06-14T12:08:54;18.50;;;8.83;;
6850;SDS011;3464;42.728;23.296;2023-06-14T12:11:18;16.90;;;9.50;;
6850;SDS011;3464;42.728;23.296;2023-06-14T12:13:45;16.20;;;8.80;;
6850;SDS011;3464;42.728;23.296;2023-06-14T12:16:12;18.30;;;9.47;;
6850;SDS011;3464;42.728;23.296;2023-06-14T12:18:39;17.30;;;9.10;;
6850;SDS011;3464;42.728;23.296;2023-06-14T12:21:06;18.47;;;8.87;;
6850;SDS011;3464;42.728;23.296;2023-06-14T12:23:42;16.30;;;8.63;;
6850;SDS011;3464;42.728;23.296;2023-06-14T12:26:09;15.60;;;8.03;;
6850;SDS011;3464;42.728;23.296;2023-06-14T12:28:35;17.23;;;9.20;;
6850;SDS011;3464;42.728;23.296;2023-06-14T12:31:02;17.70;;;8.53;;
6850;SDS011;3464;42.728;23.296;2023-06-14T12:33:29;16.90;;;8.50;;
6850;SDS011;3464;42.728;23.296;2023-06-14T12:35:57;17.20;;;7.93;;
6850;SDS011;3464;42.728;23.296;2023-06-14T12:38:24;16.57;;;7.97;;
6850;SDS011;3464;42.728;23.296;2023-06-14T12:40:51;20.23;;;8.77;;
6850;SDS011;3464;42.728;23.296;2023-06-14T12:43:17;17.27;;;8.47;;
6850;SDS011;3464;42.728;23.296;2023-06-14T12:45:44;16.03;;;7.90;;
6850;SDS011;3464;42.728;23.296;2023-06-14T12:48:10;20.07;;;8.63;;
6850;SDS011;3464;42.728;23.296;2023-06-14T12:50:37;17.00;;;8.57;;
6850;SDS011;3464;42.728;23.296;2023-06-14T12:53:03;19.37;;;8.27;;
6850;SDS011;3464;42.728;23.296;2023-06-14T12:55:30;17.07;;;8.20;;
6850;SDS011;3464;42.728;23.296;2023-06-14T12:57:56;15.30;;;7.37;;
6850;SDS011;3464;42.728;23.296;2023-06-14T13:00:23;15.03;;;7.40;;
6850;SDS011;3464;42.728;23.296;2023-06-14T13:02:50;14.30;;;7.40;;
6850;SDS011;3464;42.728;23.296;2023-06-14T13:05:16;14.57;;;7.23;;
6850;SDS011;3464;42.728;23.296;2023-06-14T13:07:43;13.80;;;7.10;;
6850;SDS011;3464;42.728;23.296;2023-06-14T13:10:10;13.20;;;6.13;;
6850;SDS011;3464;42.728;23.296;2023-06-14T13:12:37;15.33;;;8.07;;
6850;SDS011;3464;42.728;23.296;2023-06-14T13:15:05;12.90;;;6.80;;
6850;SDS011;3464;42.728;23.296;2023-06-14T13:17:33;18.00;;;7.87;;
6850;SDS011;3464;42.728;23.296;2023-06-14T13:20:00;12.70;;;6.40;;
6850;SDS011;3464;42.728;23.296;2023-06-14T13:22:27;14.23;;;6.67;;
6850;SDS011;3464;42.728;23.296;2023-06-14T13:24:54;13.10;;;6.03;;
6850;SDS011;3464;42.728;23.296;2023-06-14T13:27:21;15.30;;;6.07;;
6850;SDS011;3464;42.728;23.296;2023-06-14T13:29:48;13.90;;;6.33;;
6850;SDS011;3464;42.728;23.296;2023-06-14T13:32:15;14.50;;;5.80;;
6850;SDS011;3464;42.728;23.296;2023-06-14T13:34:42;14.10;;;6.07;;
6850;SDS011;3464;42.728;23.296;2023-06-14T13:37:10;13.90;;;6.60;;
6850;SDS011;3464;42.728;23.296;2023-06-14T13:39:38;14.43;;;6.97;;
6850;SDS011;3464;42.728;23.296;2023-06-14T13:42:05;13.80;;;6.60;;
6850;SDS011;3464;42.728;23.296;2023-06-14T13:44:32;14.30;;;6.27;;
6850;SDS011;3464;42.728;23.296;2023-06-14T13:46:59;17.50;;;6.40;;
6850;SDS011;3464;42.728;23.296;2023-06-14T13:49:26;20.00;;;6.67;;
6850;SDS011;3464;42.728;23.296;2023-06-14T13:51:52;13.57;;;6.00;;
6850;SDS011;3464;42.728;23.296;2023-06-14T13:54:20;13.97;;;7.00;;
6850;SDS011;3464;42.728;23.296;2023-06-14T13:56:46;19.07;;;7.00;;
6850;SDS011;3464;42.728;23.296;2023-06-14T13:59:13;16.70;;;8.13;;
6850;SDS011;3464;42.728;23.296;2023-06-14T14:01:40;17.73;;;7.73;;
6850;SDS011;3464;42.728;23.296;2023-06-14T14:04:06;14.80;;;7.90;;
6850;SDS011;3464;42.728;23.296;2023-06-14T14:06:33;16.77;;;7.80;;
6850;SDS011;3464;42.728;23.296;2023-06-14T14:08:59;15.73;;;7.73;;
6850;SDS011;3464;42.728;23.296;2023-06-14T14:11:27;16.33;;;7.20;;
6850;SDS011;3464;42.728;23.296;2023-06-14T14:13:54;12.53;;;6.40;;
6850;SDS011;3464;42.728;23.296;2023-06-14T14:16:20;13.23;;;6.93;;
6850;SDS011;3464;42.728;23.296;2023-06-14T14:18:48;13.20;;;6.87;;
6850;SDS011;3464;42.728;23.296;2023-06-14T14:21:16;13.57;;;6.60;;
6850;SDS011;3464;42.728;23.296;2023-06-14T14:23:43;15.33;;;7.00;;
6850;SDS011;3464;42.728;23.296;2023-06-14T14:26:09;14.77;;;7.13;;
6850;SDS011;3464;42.728;23.296;2023-06-14T14:28:36;13.27;;;6.50;;
6850;SDS011;3464;42.728;23.296;2023-06-14T14:31:02;15.23;;;7.70;;
6850;SDS011;3464;42.728;23.296;2023-06-14T14:33:30;17.03;;;7.77;;
6850;SDS011;3464;42.728;23.296;2023-06-14T14:35:57;23.80;;;11.43;;
6850;SDS011;3464;42.728;23.296;2023-06-14T14:38:25;16.23;;;8.93;;
6850;SDS011;3464;42.728;23.296;2023-06-14T14:40:52;20.17;;;10.30;;
6850;SDS011;3464;42.728;23.296;2023-06-14T14:43:18;18.50;;;9.57;;
6850;SDS011;3464;42.728;23.296;2023-06-14T14:45:45;17.60;;;9.57;;
6850;SDS011;3464;42.728;23.296;2023-06-14T14:48:11;17.60;;;9.03;;
6850;SDS011;3464;42.728;23.296;2023-06-14T14:50:38;14.43;;;8.40;;
6850;SDS011;3464;42.728;23.296;2023-06-14T14:53:05;17.57;;;9.10;;